sensor_id;sensor_type;location;lat;lon;timestamp;P1;durP1;ratioP1;P2;durP2;ratioP2
24096;SDS011;12275;48.550;12.132;2023-05-20T00:00:10;7.88;;;5.30;;
24096;SDS011;12275;48.550;12.132;2023-05-20T00:02:36;5.75;;;5.30;;
24096;SDS011;12275;48.550;12.132;2023-05-20T00:05:02;6.03;;;5.47;;
24096;SDS011;12275;48.550;12.132;2023-05-20T00:07:29;6.75;;;6.03;;
24096;SDS011;12275;48.550;12.132;2023-05-20T00:09:55;6.13;;;5.53;;
24096;SDS011;12275;48.550;12.132;2023-05-20T00:12:21;5.80;;;5.20;;
24096;SDS011;12275;48.550;12.132;2023-05-20T00:14:47;8.07;;;5.82;;
24096;SDS011;12275;48.550;12.132;2023-05-20T00:17:13;7.22;;;6.38;;
24096;SDS011;12275;48.550;12.132;2023-05-20T00:19:39;6.00;;;5.40;;
24096;SDS011;12275;48.550;12.132;2023-05-20T00:22:05;6.80;;;5.28;;
24096;SDS011;12275;48.550;12.132;2023-05-20T00:24:31;6.05;;;5.47;;
24096;SDS011;12275;48.550;12.132;2023-05-20T00:26:57;8.93;;;5.82;;
24096;SDS011;12275;48.550;12.132;2023-05-20T00:29:23;6.40;;;5.80;;
24096;SDS011;12275;48.550;12.132;2023-05-20T00:31:49;8.38;;;6.30;;
24096;SDS011;12275;48.550;12.132;2023-05-20T00:34:15;8.00;;;6.13;;
24096;SDS011;12275;48.550;12.132;2023-05-20T00:36:41;8.02;;;6.30;;
24096;SDS011;12275;48.550;12.132;2023-05-20T00:39:07;7.63;;;5.90;;
24096;SDS011;12275;48.550;12.132;2023-05-20T00:41:33;8.07;;;6.03;;
24096;SDS011;12275;48.550;12.132;2023-05-20T00:44:00;8.50;;;5.88;;
24096;SDS011;12275;48.550;12.132;2023-05-20T00:46:26;7.32;;;6.40;;
24096;SDS011;12275;48.550;12.132;2023-05-20T00:48:53;6.95;;;6.25;;
24096;SDS011;12275;48.550;12.132;2023-05-20T00:51:19;7.30;;;5.72;;
24096;SDS011;12275;48.550;12.132;2023-05-20T00:53:46;6.80;;;5.75;;
24096;SDS011;12275;48.550;12.132;2023-05-20T00:56:12;10.13;;;6.18;;
24096;SDS011;12275;48.550;12.132;2023-05-20T00:58:39;9.18;;;5.90;;
24096;SDS011;12275;48.550;12.132;2023-05-20T01:01:05;7.70;;;6.63;;
24096;SDS011;12275;48.550;12.132;2023-05-20T01:03:31;6.68;;;5.85;;
24096;SDS011;12275;48.550;12.132;2023-05-20T01:05:57;6.85;;;6.10;;
24096;SDS011;12275;48.550;12.132;2023-05-20T01:08:24;9.77;;;6.43;;
24096;SDS011;12275;48.550;12.132;2023-05-20T01:10:53;7.93;;;5.78;;
24096;SDS011;12275;48.550;12.132;2023-05-20T01:13:22;6.90;;;6.13;;
24096;SDS011;12275;48.550;12.132;2023-05-20T01:15:50;8.63;;;6.00;;
24096;SDS011;12275;48.550;12.132;2023-05-20T01:18:17;9.70;;;6.50;;
24096;SDS011;12275;48.550;12.132;2023-05-20T01:20:45;7.55;;;6.30;;
24096;SDS011;12275;48.550;12.132;2023-05-20T01:23:12;7.53;;;6.78;;
24096;SDS011;12275;48.550;12.132;2023-05-20T01:25:39;6.65;;;5.95;;
24096;SDS011;12275;48.550;12.132;2023-05-20T01:28:06;9.63;;;6.65;;
24096;SDS011;12275;48.550;12.132;2023-05-20T01:30:37;7.85;;;6.97;;
24096;SDS011;12275;48.550;12.132;2023-05-20T01:33:04;7.37;;;6.67;;
24096;SDS011;12275;48.550;12.132;2023-05-20T01:35:32;8.80;;;6.60;;
24096;SDS011;12275;48.550;12.132;2023-05-20T01:38:00;10.82;;;6.53;;
24096;SDS011;12275;48.550;12.132;2023-05-20T01:40:26;8.10;;;6.45;;
24096;SDS011;12275;48.550;12.132;2023-05-20T01:42:52;6.53;;;5.78;;
24096;SDS011;12275;48.550;12.132;2023-05-20T01:45:20;7.60;;;6.30;;
24096;SDS011;12275;48.550;12.132;2023-05-20T01:47:46;8.40;;;6.68;;
24096;SDS011;12275;48.550;12.132;2023-05-20T01:50:12;8.02;;;6.95;;
24096;SDS011;12275;48.550;12.132;2023-05-20T01:52:38;9.95;;;6.53;;
24096;SDS011;12275;48.550;12.132;2023-05-20T01:55:04;8.75;;;7.20;;
24096;SDS011;12275;48.550;12.132;2023-05-20T01:57:30;9.05;;;7.13;;
24096;SDS011;12275;48.550;12.132;2023-05-20T01:59:56;9.75;;;7.43;;
24096;SDS011;12275;48.550;12.132;2023-05-20T02:02:22;7.07;;;6.47;;
24096;SDS011;12275;48.550;12.132;2023-05-20T02:04:49;9.97;;;6.00;;
24096;SDS011;12275;48.550;12.132;2023-05-20T02:07:16;8.90;;;7.00;;
24096;SDS011;12275;48.550;12.132;2023-05-20T02:09:45;8.17;;;6.33;;
24096;SDS011;12275;48.550;12.132;2023-05-20T02:12:12;8.07;;;6.77;;
24096;SDS011;12275;48.550;12.132;2023-05-20T02:14:45;7.60;;;5.90;;
24096;SDS011;12275;48.550;12.132;2023-05-20T02:17:11;8.50;;;7.23;;
24096;SDS011;12275;48.550;12.132;2023-05-20T02:19:40;8.53;;;7.00;;
24096;SDS011;12275;48.550;12.132;2023-05-20T02:22:06;8.03;;;6.67;;
24096;SDS011;12275;48.550;12.132;2023-05-20T02:24:32;8.30;;;6.93;;
24096;SDS011;12275;48.550;12.132;2023-05-20T02:26:58;12.27;;;6.93;;
24096;SDS011;12275;48.550;12.132;2023-05-20T02:29:24;7.20;;;6.50;;
24096;SDS011;12275;48.550;12.132;2023-05-20T02:31:50;8.03;;;7.23;;
24096;SDS011;12275;48.550;12.132;2023-05-20T02:34:17;9.67;;;7.53;;
24096;SDS011;12275;48.550;12.132;2023-05-20T02:36:43;7.70;;;7.00;;
24096;SDS011;12275;48.550;12.132;2023-05-20T02:39:09;7.73;;;6.40;;
24096;SDS011;12275;48.550;12.132;2023-05-20T02:41:35;9.77;;;6.83;;
24096;SDS011;12275;48.550;12.132;2023-05-20T02:44:01;7.37;;;6.53;;
24096;SDS011;12275;48.550;12.132;2023-05-20T02:46:27;9.10;;;7.20;;
24096;SDS011;12275;48.550;12.132;2023-05-20T02:48:53;8.97;;;7.43;;
24096;SDS011;12275;48.550;12.132;2023-05-20T02:51:19;12.33;;;7.40;;
24096;SDS011;12275;48.550;12.132;2023-05-20T02:53:45;9.40;;;6.93;;
24096;SDS011;12275;48.550;12.132;2023-05-20T02:56:12;9.93;;;6.80;;
24096;SDS011;12275;48.550;12.132;2023-05-20T02:58:38;8.07;;;7.27;;
24096;SDS011;12275;48.550;12.132;2023-05-20T03:01:04;8.67;;;7.17;;
24096;SDS011;12275;48.550;12.132;2023-05-20T03:03:31;10.60;;;7.57;;
24096;SDS011;12275;48.550;12.132;2023-05-20T03:05:57;8.82;;;7.25;;
24096;SDS011;12275;48.550;12.132;2023-05-20T03:08:23;9.73;;;7.67;;
24096;SDS011;12275;48.550;12.132;2023-05-20T03:10:49;10.17;;;7.53;;
24096;SDS011;12275;48.550;12.132;2023-05-20T03:13:15;8.00;;;7.20;;
24096;SDS011;12275;48.550;12.132;2023-05-20T03:15:42;9.30;;;7.27;;
24096;SDS011;12275;48.550;12.132;2023-05-20T03:18:09;8.90;;;7.30;;
24096;SDS011;12275;48.550;12.132;2023-05-20T03:20:36;10.77;;;7.83;;
24096;SDS011;12275;48.550;12.132;2023-05-20T03:23:05;10.83;;;7.47;;
24096;SDS011;12275;48.550;12.132;2023-05-20T03:25:32;9.67;;;7.43;;
24096;SDS011;12275;48.550;12.132;2023-05-20T03:27:58;8.73;;;7.30;;
24096;SDS011;12275;48.550;12.132;2023-05-20T03:30:24;8.57;;;7.53;;
24096;SDS011;12275;48.550;12.132;2023-05-20T03:32:50;11.67;;;8.20;;
24096;SDS011;12275;48.550;12.132;2023-05-20T03:35:16;9.17;;;8.07;;
24096;SDS011;12275;48.550;12.132;2023-05-20T03:37:42;10.63;;;7.70;;
24096;SDS011;12275;48.550;12.132;2023-05-20T03:40:08;9.93;;;8.13;;
24096;SDS011;12275;48.550;12.132;2023-05-20T03:42:35;10.17;;;7.70;;
24096;SDS011;12275;48.550;12.132;2023-05-20T03:45:01;11.00;;;8.00;;
24096;SDS011;12275;48.550;12.132;2023-05-20T03:47:27;8.63;;;7.73;;
24096;SDS011;12275;48.550;12.132;2023-05-20T03:49:53;10.90;;;8.00;;
24096;SDS011;12275;48.550;12.132;2023-05-20T03:52:19;8.60;;;7.70;;
24096;SDS011;12275;48.550;12.132;2023-05-20T03:54:46;9.57;;;7.47;;
24096;SDS011;12275;48.550;12.132;2023-05-20T03:57:12;11.13;;;8.67;;
24096;SDS011;12275;48.550;12.132;2023-05-20T03:59:38;9.90;;;8.07;;
24096;SDS011;12275;48.550;12.132;2023-05-20T04:02:04;8.90;;;7.47;;
24096;SDS011;12275;48.550;12.132;2023-05-20T04:04:30;9.40;;;7.67;;
24096;SDS011;12275;48.550;12.132;2023-05-20T04:06:57;12.77;;;8.33;;
24096;SDS011;12275;48.550;12.132;2023-05-20T04:09:27;13.80;;;8.47;;
24096;SDS011;12275;48.550;12.132;2023-05-20T04:11:53;8.53;;;7.67;;
24096;SDS011;12275;48.550;12.132;2023-05-20T04:14:19;10.10;;;7.77;;
24096;SDS011;12275;48.550;12.132;2023-05-20T04:16:45;10.37;;;8.43;;
24096;SDS011;12275;48.550;12.132;2023-05-20T04:19:11;11.33;;;8.10;;
24096;SDS011;12275;48.550;12.132;2023-05-20T04:21:37;9.33;;;7.70;;
24096;SDS011;12275;48.550;12.132;2023-05-20T04:24:03;10.60;;;8.40;;
24096;SDS011;12275;48.550;12.132;2023-05-20T04:26:30;13.13;;;8.13;;
24096;SDS011;12275;48.550;12.132;2023-05-20T04:28:57;17.67;;;8.63;;
24096;SDS011;12275;48.550;12.132;2023-05-20T04:31:25;10.20;;;7.93;;
24096;SDS011;12275;48.550;12.132;2023-05-20T04:33:52;8.60;;;7.72;;
24096;SDS011;12275;48.550;12.132;2023-05-20T04:36:18;8.43;;;7.53;;
24096;SDS011;12275;48.550;12.132;2023-05-20T04:38:44;10.25;;;8.30;;
24096;SDS011;12275;48.550;12.132;2023-05-20T04:41:12;11.33;;;8.47;;
24096;SDS011;12275;48.550;12.132;2023-05-20T04:43:39;8.77;;;7.87;;
24096;SDS011;12275;48.550;12.132;2023-05-20T04:46:05;12.93;;;7.95;;
24096;SDS011;12275;48.550;12.132;2023-05-20T04:48:32;9.73;;;7.63;;
24096;SDS011;12275;48.550;12.132;2023-05-20T04:50:58;11.47;;;7.57;;
24096;SDS011;12275;48.550;12.132;2023-05-20T04:53:24;9.33;;;8.07;;
24096;SDS011;12275;48.550;12.132;2023-05-20T04:55:53;11.80;;;8.60;;
24096;SDS011;12275;48.550;12.132;2023-05-20T04:58:20;13.50;;;8.18;;
24096;SDS011;12275;48.550;12.132;2023-05-20T05:00:48;9.43;;;8.33;;
24096;SDS011;12275;48.550;12.132;2023-05-20T05:03:15;10.13;;;7.90;;
24096;SDS011;12275;48.550;12.132;2023-05-20T05:05:41;8.95;;;7.97;;
24096;SDS011;12275;48.550;12.132;2023-05-20T05:08:07;12.57;;;7.97;;
24096;SDS011;12275;48.550;12.132;2023-05-20T05:10:34;9.88;;;7.90;;
24096;SDS011;12275;48.550;12.132;2023-05-20T05:13:00;9.27;;;7.70;;
24096;SDS011;12275;48.550;12.132;2023-05-20T05:15:27;19.30;;;8.48;;
24096;SDS011;12275;48.550;12.132;2023-05-20T05:17:53;9.85;;;7.93;;
24096;SDS011;12275;48.550;12.132;2023-05-20T05:20:19;10.55;;;8.48;;
24096;SDS011;12275;48.550;12.132;2023-05-20T05:22:45;11.32;;;8.63;;
24096;SDS011;12275;48.550;12.132;2023-05-20T05:25:11;11.38;;;8.18;;
24096;SDS011;12275;48.550;12.132;2023-05-20T05:27:38;8.57;;;7.60;;
24096;SDS011;12275;48.550;12.132;2023-05-20T05:30:05;11.18;;;8.02;;
24096;SDS011;12275;48.550;12.132;2023-05-20T05:32:31;11.77;;;8.05;;
24096;SDS011;12275;48.550;12.132;2023-05-20T05:34:57;8.90;;;7.70;;
24096;SDS011;12275;48.550;12.132;2023-05-20T05:37:23;10.55;;;7.80;;
24096;SDS011;12275;48.550;12.132;2023-05-20T05:39:49;8.93;;;8.02;;
24096;SDS011;12275;48.550;12.132;2023-05-20T05:42:15;10.38;;;8.27;;
24096;SDS011;12275;48.550;12.132;2023-05-20T05:44:41;8.50;;;7.50;;
24096;SDS011;12275;48.550;12.132;2023-05-20T05:47:08;9.80;;;7.68;;
24096;SDS011;12275;48.550;12.132;2023-05-20T05:49:34;14.13;;;8.20;;
24096;SDS011;12275;48.550;12.132;2023-05-20T05:52:00;9.50;;;7.78;;
24096;SDS011;12275;48.550;12.132;2023-05-20T05:54:26;9.85;;;7.72;;
24096;SDS011;12275;48.550;12.132;2023-05-20T05:56:52;10.63;;;7.50;;
24096;SDS011;12275;48.550;12.132;2023-05-20T05:59:20;10.98;;;7.45;;
24096;SDS011;12275;48.550;12.132;2023-05-20T06:01:46;8.57;;;7.65;;
24096;SDS011;12275;48.550;12.132;2023-05-20T06:04:12;8.52;;;7.63;;
24096;SDS011;12275;48.550;12.132;2023-05-20T06:06:39;8.57;;;7.70;;
24096;SDS011;12275;48.550;12.132;2023-05-20T06:09:05;7.63;;;6.90;;
24096;SDS011;12275;48.550;12.132;2023-05-20T06:11:31;8.48;;;7.43;;
24096;SDS011;12275;48.550;12.132;2023-05-20T06:13:57;12.18;;;7.70;;
24096;SDS011;12275;48.550;12.132;2023-05-20T06:16:24;8.23;;;7.43;;
24096;SDS011;12275;48.550;12.132;2023-05-20T06:18:50;8.15;;;6.80;;
24096;SDS011;12275;48.550;12.132;2023-05-20T06:21:17;12.82;;;7.55;;
24096;SDS011;12275;48.550;12.132;2023-05-20T07:11:17;7.00;;;6.18;;
24096;SDS011;12275;48.550;12.132;2023-05-20T07:13:43;8.77;;;5.82;;
24096;SDS011;12275;48.550;12.132;2023-05-20T07:16:08;6.72;;;6.13;;
24096;SDS011;12275;48.550;12.132;2023-05-20T07:18:34;15.18;;;6.88;;
24096;SDS011;12275;48.550;12.132;2023-05-20T07:21:00;13.13;;;6.18;;
24096;SDS011;12275;48.550;12.132;2023-05-20T07:23:25;12.25;;;6.95;;
24096;SDS011;12275;48.550;12.132;2023-05-20T07:25:51;9.55;;;5.97;;
24096;SDS011;12275;48.550;12.132;2023-05-20T07:28:19;8.30;;;6.53;;
24096;SDS011;12275;48.550;12.132;2023-05-20T07:30:45;7.00;;;6.05;;
24096;SDS011;12275;48.550;12.132;2023-05-20T07:33:14;12.10;;;6.47;;
24096;SDS011;12275;48.550;12.132;2023-05-20T07:35:41;7.55;;;6.53;;
24096;SDS011;12275;48.550;12.132;2023-05-20T07:38:07;11.43;;;6.47;;
24096;SDS011;12275;48.550;12.132;2023-05-20T07:40:33;10.02;;;5.57;;
24096;SDS011;12275;48.550;12.132;2023-05-20T07:43:00;7.38;;;6.55;;
24096;SDS011;12275;48.550;12.132;2023-05-20T07:45:26;7.80;;;6.38;;
24096;SDS011;12275;48.550;12.132;2023-05-20T07:47:52;12.25;;;7.03;;
24096;SDS011;12275;48.550;12.132;2023-05-20T07:50:18;7.03;;;6.30;;
24096;SDS011;12275;48.550;12.132;2023-05-20T07:52:43;7.35;;;6.53;;
24096;SDS011;12275;48.550;12.132;2023-05-20T07:55:09;7.65;;;6.43;;
24096;SDS011;12275;48.550;12.132;2023-05-20T07:57:35;8.93;;;5.90;;
24096;SDS011;12275;48.550;12.132;2023-05-20T08:00:00;10.38;;;7.25;;
24096;SDS011;12275;48.550;12.132;2023-05-20T08:02:26;8.25;;;6.35;;
24096;SDS011;12275;48.550;12.132;2023-05-20T08:04:51;7.95;;;6.70;;
24096;SDS011;12275;48.550;12.132;2023-05-20T08:07:17;8.48;;;6.88;;
24096;SDS011;12275;48.550;12.132;2023-05-20T08:09:43;8.20;;;6.97;;
24096;SDS011;12275;48.550;12.132;2023-05-20T08:12:08;6.80;;;6.10;;
24096;SDS011;12275;48.550;12.132;2023-05-20T08:14:34;17.67;;;6.18;;
24096;SDS011;12275;48.550;12.132;2023-05-20T08:16:59;9.27;;;6.40;;
24096;SDS011;12275;48.550;12.132;2023-05-20T08:19:25;9.20;;;5.93;;
24096;SDS011;12275;48.550;12.132;2023-05-20T08:21:51;9.63;;;7.38;;
24096;SDS011;12275;48.550;12.132;2023-05-20T08:24:17;7.00;;;6.25;;
24096;SDS011;12275;48.550;12.132;2023-05-20T08:26:42;7.03;;;6.20;;
24096;SDS011;12275;48.550;12.132;2023-05-20T08:29:08;46.67;;;9.43;;
24096;SDS011;12275;48.550;12.132;2023-05-20T08:31:34;13.35;;;5.95;;
24096;SDS011;12275;48.550;12.132;2023-05-20T08:34:00;8.00;;;5.68;;
24096;SDS011;12275;48.550;12.132;2023-05-20T08:36:25;8.98;;;6.38;;
24096;SDS011;12275;48.550;12.132;2023-05-20T08:38:51;6.97;;;6.20;;
24096;SDS011;12275;48.550;12.132;2023-05-20T08:41:16;6.85;;;5.82;;
24096;SDS011;12275;48.550;12.132;2023-05-20T08:43:42;12.50;;;5.90;;
24096;SDS011;12275;48.550;12.132;2023-05-20T08:46:08;8.43;;;7.65;;
24096;SDS011;12275;48.550;12.132;2023-05-20T08:48:35;7.40;;;6.40;;
24096;SDS011;12275;48.550;12.132;2023-05-20T08:51:01;11.57;;;5.47;;
24096;SDS011;12275;48.550;12.132;2023-05-20T08:53:28;8.82;;;5.18;;
24096;SDS011;12275;48.550;12.132;2023-05-20T08:58:22;6.55;;;5.03;;
24096;SDS011;12275;48.550;12.132;2023-05-20T09:00:48;7.05;;;5.00;;
24096;SDS011;12275;48.550;12.132;2023-05-20T09:03:15;7.05;;;6.35;;
24096;SDS011;12275;48.550;12.132;2023-05-20T09:05:41;6.88;;;5.10;;
24096;SDS011;12275;48.550;12.132;2023-05-20T09:08:07;6.78;;;5.07;;
24096;SDS011;12275;48.550;12.132;2023-05-20T09:10:34;9.55;;;5.97;;
24096;SDS011;12275;48.550;12.132;2023-05-20T09:13:01;8.10;;;6.03;;
24096;SDS011;12275;48.550;12.132;2023-05-20T09:15:28;7.28;;;5.68;;
24096;SDS011;12275;48.550;12.132;2023-05-20T09:18:01;8.60;;;5.50;;
24096;SDS011;12275;48.550;12.132;2023-05-20T09:20:28;10.05;;;7.60;;
24096;SDS011;12275;48.550;12.132;2023-05-20T09:22:57;6.55;;;5.85;;
24096;SDS011;12275;48.550;12.132;2023-05-20T09:25:27;11.32;;;5.35;;
24096;SDS011;12275;48.550;12.132;2023-05-20T09:27:53;7.68;;;6.00;;
24096;SDS011;12275;48.550;12.132;2023-05-20T09:30:20;6.65;;;5.68;;
24096;SDS011;12275;48.550;12.132;2023-05-20T09:35:38;7.05;;;5.95;;
24096;SDS011;12275;48.550;12.132;2023-05-20T09:40:31;10.75;;;6.15;;
24096;SDS011;12275;48.550;12.132;2023-05-20T09:43:01;20.42;;;7.18;;
24096;SDS011;12275;48.550;12.132;2023-05-20T09:45:27;9.27;;;5.82;;
24096;SDS011;12275;48.550;12.132;2023-05-20T09:47:54;9.20;;;5.88;;
24096;SDS011;12275;48.550;12.132;2023-05-20T09:50:20;8.40;;;6.57;;
24096;SDS011;12275;48.550;12.132;2023-05-20T09:52:51;8.95;;;6.25;;
24096;SDS011;12275;48.550;12.132;2023-05-20T09:55:17;10.00;;;6.25;;
24096;SDS011;12275;48.550;12.132;2023-05-20T09:57:44;11.20;;;5.97;;
24096;SDS011;12275;48.550;12.132;2023-05-20T10:00:10;15.88;;;6.75;;
24096;SDS011;12275;48.550;12.132;2023-05-20T10:02:40;6.82;;;5.68;;
24096;SDS011;12275;48.550;12.132;2023-05-20T10:05:08;6.13;;;5.57;;
24096;SDS011;12275;48.550;12.132;2023-05-20T10:10:41;6.63;;;5.60;;
24096;SDS011;12275;48.550;12.132;2023-05-20T10:21:00;10.25;;;5.65;;
24096;SDS011;12275;48.550;12.132;2023-05-20T10:23:27;7.35;;;6.10;;
24096;SDS011;12275;48.550;12.132;2023-05-20T10:25:54;8.48;;;5.97;;
24096;SDS011;12275;48.550;12.132;2023-05-20T10:28:28;6.72;;;5.65;;
24096;SDS011;12275;48.550;12.132;2023-05-20T10:33:26;7.60;;;5.57;;
24096;SDS011;12275;48.550;12.132;2023-05-20T10:35:53;8.10;;;6.30;;
24096;SDS011;12275;48.550;12.132;2023-05-20T10:38:22;7.70;;;5.63;;
24096;SDS011;12275;48.550;12.132;2023-05-20T10:40:48;7.47;;;5.88;;
24096;SDS011;12275;48.550;12.132;2023-05-20T10:43:24;7.20;;;6.35;;
24096;SDS011;12275;48.550;12.132;2023-05-20T10:45:52;10.70;;;5.65;;
24096;SDS011;12275;48.550;12.132;2023-05-20T10:48:19;6.55;;;5.93;;
24096;SDS011;12275;48.550;12.132;2023-05-20T10:50:48;6.60;;;5.88;;
24096;SDS011;12275;48.550;12.132;2023-05-20T10:53:14;6.30;;;5.72;;
24096;SDS011;12275;48.550;12.132;2023-05-20T10:55:40;10.35;;;6.35;;
24096;SDS011;12275;48.550;12.132;2023-05-20T10:58:13;7.43;;;6.63;;
24096;SDS011;12275;48.550;12.132;2023-05-20T11:00:39;7.30;;;6.60;;
24096;SDS011;12275;48.550;12.132;2023-05-20T11:03:05;11.43;;;7.05;;
24096;SDS011;12275;48.550;12.132;2023-05-20T11:05:31;7.68;;;6.22;;
24096;SDS011;12275;48.550;12.132;2023-05-20T11:08:01;8.25;;;7.45;;
24096;SDS011;12275;48.550;12.132;2023-05-20T11:10:27;10.27;;;6.85;;
24096;SDS011;12275;48.550;12.132;2023-05-20T11:12:53;9.57;;;7.22;;
24096;SDS011;12275;48.550;12.132;2023-05-20T11:15:20;12.00;;;6.80;;
24096;SDS011;12275;48.550;12.132;2023-05-20T11:17:54;7.35;;;6.53;;
24096;SDS011;12275;48.550;12.132;2023-05-20T11:20:20;10.75;;;7.80;;
24096;SDS011;12275;48.550;12.132;2023-05-20T11:22:50;8.40;;;6.90;;
24096;SDS011;12275;48.550;12.132;2023-05-20T11:25:16;12.05;;;7.07;;
24096;SDS011;12275;48.550;12.132;2023-05-20T11:27:43;11.07;;;7.45;;
24096;SDS011;12275;48.550;12.132;2023-05-20T11:30:10;8.43;;;7.50;;
24096;SDS011;12275;48.550;12.132;2023-05-20T11:32:40;7.82;;;7.13;;
24096;SDS011;12275;48.550;12.132;2023-05-20T11:35:06;10.50;;;7.00;;
24096;SDS011;12275;48.550;12.132;2023-05-20T11:37:34;10.02;;;7.60;;
24096;SDS011;12275;48.550;12.132;2023-05-20T11:40:03;14.48;;;6.88;;
24096;SDS011;12275;48.550;12.132;2023-05-20T11:42:34;12.40;;;7.53;;
24096;SDS011;12275;48.550;12.132;2023-05-20T11:45:01;9.38;;;6.95;;
24096;SDS011;12275;48.550;12.132;2023-05-20T11:47:26;12.20;;;7.55;;
24096;SDS011;12275;48.550;12.132;2023-05-20T11:49:52;10.57;;;7.55;;
24096;SDS011;12275;48.550;12.132;2023-05-20T11:52:18;9.93;;;6.88;;
24096;SDS011;12275;48.550;12.132;2023-05-20T11:54:44;10.18;;;6.80;;
24096;SDS011;12275;48.550;12.132;2023-05-20T11:57:14;16.08;;;7.05;;
24096;SDS011;12275;48.550;12.132;2023-05-20T11:59:40;9.13;;;7.50;;
24096;SDS011;12275;48.550;12.132;2023-05-20T12:02:08;9.07;;;6.63;;
24096;SDS011;12275;48.550;12.132;2023-05-20T12:04:33;9.65;;;7.78;;
24096;SDS011;12275;48.550;12.132;2023-05-20T12:06:59;11.88;;;7.47;;
24096;SDS011;12275;48.550;12.132;2023-05-20T12:09:25;14.00;;;6.95;;
24096;SDS011;12275;48.550;12.132;2023-05-20T12:11:50;10.85;;;7.25;;
24096;SDS011;12275;48.550;12.132;2023-05-20T12:14:16;10.30;;;6.70;;
24096;SDS011;12275;48.550;12.132;2023-05-20T12:16:41;8.38;;;6.30;;
24096;SDS011;12275;48.550;12.132;2023-05-20T12:19:07;8.02;;;6.70;;
24096;SDS011;12275;48.550;12.132;2023-05-20T12:21:33;9.15;;;7.50;;
24096;SDS011;12275;48.550;12.132;2023-05-20T12:23:58;8.77;;;6.70;;
24096;SDS011;12275;48.550;12.132;2023-05-20T12:26:27;12.35;;;6.63;;
24096;SDS011;12275;48.550;12.132;2023-05-20T12:28:53;11.13;;;7.13;;
24096;SDS011;12275;48.550;12.132;2023-05-20T12:31:19;8.45;;;7.40;;
24096;SDS011;12275;48.550;12.132;2023-05-20T12:33:45;9.70;;;6.63;;
24096;SDS011;12275;48.550;12.132;2023-05-20T12:36:11;10.20;;;6.63;;
24096;SDS011;12275;48.550;12.132;2023-05-20T12:38:37;10.15;;;6.70;;
24096;SDS011;12275;48.550;12.132;2023-05-20T12:41:03;9.48;;;7.30;;
24096;SDS011;12275;48.550;12.132;2023-05-20T12:43:28;9.75;;;7.43;;
24096;SDS011;12275;48.550;12.132;2023-05-20T12:45:54;7.80;;;7.00;;
24096;SDS011;12275;48.550;12.132;2023-05-20T12:48:20;10.93;;;7.30;;
24096;SDS011;12275;48.550;12.132;2023-05-20T12:50:45;9.95;;;7.65;;
24096;SDS011;12275;48.550;12.132;2023-05-20T12:53:11;12.40;;;10.70;;
24096;SDS011;12275;48.550;12.132;2023-05-20T12:55:37;8.95;;;7.15;;
24096;SDS011;12275;48.550;12.132;2023-05-20T12:58:03;8.98;;;7.75;;
24096;SDS011;12275;48.550;12.132;2023-05-20T13:00:29;8.35;;;7.20;;
24096;SDS011;12275;48.550;12.132;2023-05-20T13:02:55;9.15;;;7.10;;
24096;SDS011;12275;48.550;12.132;2023-05-20T13:05:21;9.70;;;7.20;;
24096;SDS011;12275;48.550;12.132;2023-05-20T13:07:46;6.40;;;5.80;;
24096;SDS011;12275;48.550;12.132;2023-05-20T13:10:13;8.23;;;7.43;;
24096;SDS011;12275;48.550;12.132;2023-05-20T13:12:38;8.43;;;7.63;;
24096;SDS011;12275;48.550;12.132;2023-05-20T13:15:09;10.85;;;7.45;;
24096;SDS011;12275;48.550;12.132;2023-05-20T13:17:36;8.98;;;7.40;;
24096;SDS011;12275;48.550;12.132;2023-05-20T13:20:02;10.48;;;6.38;;
24096;SDS011;12275;48.550;12.132;2023-05-20T13:22:28;10.98;;;7.30;;
24096;SDS011;12275;48.550;12.132;2023-05-20T13:24:53;11.32;;;7.07;;
24096;SDS011;12275;48.550;12.132;2023-05-20T13:27:19;10.63;;;9.25;;
24096;SDS011;12275;48.550;12.132;2023-05-20T13:29:45;11.70;;;9.80;;
24096;SDS011;12275;48.550;12.132;2023-05-20T13:32:10;11.60;;;7.72;;
24096;SDS011;12275;48.550;12.132;2023-05-20T13:34:36;8.20;;;7.40;;
24096;SDS011;12275;48.550;12.132;2023-05-20T13:37:02;8.20;;;7.38;;
24096;SDS011;12275;48.550;12.132;2023-05-20T13:39:28;7.97;;;7.15;;
24096;SDS011;12275;48.550;12.132;2023-05-20T13:41:54;7.35;;;6.68;;
24096;SDS011;12275;48.550;12.132;2023-05-20T13:44:20;9.20;;;7.88;;
24096;SDS011;12275;48.550;12.132;2023-05-20T13:46:45;11.25;;;7.78;;
24096;SDS011;12275;48.550;12.132;2023-05-20T13:49:11;9.20;;;7.43;;
24096;SDS011;12275;48.550;12.132;2023-05-20T13:51:37;9.50;;;7.22;;
24096;SDS011;12275;48.550;12.132;2023-05-20T13:54:02;9.80;;;7.25;;
24096;SDS011;12275;48.550;12.132;2023-05-20T13:56:28;8.60;;;7.75;;
24096;SDS011;12275;48.550;12.132;2023-05-20T13:58:54;10.65;;;7.68;;
24096;SDS011;12275;48.550;12.132;2023-05-20T14:01:19;10.23;;;8.05;;
24096;SDS011;12275;48.550;12.132;2023-05-20T14:03:45;11.77;;;7.85;;
24096;SDS011;12275;48.550;12.132;2023-05-20T14:06:10;10.20;;;7.45;;
24096;SDS011;12275;48.550;12.132;2023-05-20T14:08:38;9.77;;;8.32;;
24096;SDS011;12275;48.550;12.132;2023-05-20T14:11:04;9.05;;;7.63;;
24096;SDS011;12275;48.550;12.132;2023-05-20T14:13:30;9.07;;;8.10;;
24096;SDS011;12275;48.550;12.132;2023-05-20T14:15:55;10.10;;;7.70;;
24096;SDS011;12275;48.550;12.132;2023-05-20T14:18:21;13.10;;;7.90;;
24096;SDS011;12275;48.550;12.132;2023-05-20T14:20:47;9.75;;;8.10;;
24096;SDS011;12275;48.550;12.132;2023-05-20T14:23:12;8.00;;;7.28;;
24096;SDS011;12275;48.550;12.132;2023-05-20T14:25:38;9.65;;;7.97;;
24096;SDS011;12275;48.550;12.132;2023-05-20T14:28:04;10.95;;;8.45;;
24096;SDS011;12275;48.550;12.132;2023-05-20T14:30:30;11.45;;;7.85;;
24096;SDS011;12275;48.550;12.132;2023-05-20T14:32:56;13.68;;;8.45;;
24096;SDS011;12275;48.550;12.132;2023-05-20T14:35:22;11.15;;;8.63;;
24096;SDS011;12275;48.550;12.132;2023-05-20T14:37:47;8.48;;;7.25;;
24096;SDS011;12275;48.550;12.132;2023-05-20T14:40:13;13.77;;;8.07;;
24096;SDS011;12275;48.550;12.132;2023-05-20T14:42:39;9.35;;;7.50;;
24096;SDS011;12275;48.550;12.132;2023-05-20T14:45:05;12.57;;;8.43;;
24096;SDS011;12275;48.550;12.132;2023-05-20T14:47:31;14.45;;;8.40;;
24096;SDS011;12275;48.550;12.132;2023-05-20T14:49:57;12.38;;;7.82;;
24096;SDS011;12275;48.550;12.132;2023-05-20T14:52:23;9.57;;;7.80;;
24096;SDS011;12275;48.550;12.132;2023-05-20T14:54:48;17.02;;;13.85;;
24096;SDS011;12275;48.550;12.132;2023-05-20T14:57:14;10.80;;;9.70;;
24096;SDS011;12275;48.550;12.132;2023-05-20T14:59:40;9.18;;;7.78;;
24096;SDS011;12275;48.550;12.132;2023-05-20T15:02:06;11.77;;;8.63;;
24096;SDS011;12275;48.550;12.132;2023-05-20T15:04:31;7.57;;;6.88;;
24096;SDS011;12275;48.550;12.132;2023-05-20T15:06:57;8.82;;;7.63;;
24096;SDS011;12275;48.550;12.132;2023-05-20T15:09:23;9.45;;;7.65;;
24096;SDS011;12275;48.550;12.132;2023-05-20T15:11:49;9.45;;;7.60;;
24096;SDS011;12275;48.550;12.132;2023-05-20T15:14:14;10.10;;;7.47;;
24096;SDS011;12275;48.550;12.132;2023-05-20T15:16:40;9.45;;;7.82;;
24096;SDS011;12275;48.550;12.132;2023-05-20T15:19:08;10.45;;;7.35;;
24096;SDS011;12275;48.550;12.132;2023-05-20T15:21:34;19.67;;;11.43;;
24096;SDS011;12275;48.550;12.132;2023-05-20T15:24:00;14.23;;;9.07;;
24096;SDS011;12275;48.550;12.132;2023-05-20T15:26:26;9.68;;;7.18;;
24096;SDS011;12275;48.550;12.132;2023-05-20T15:28:54;8.38;;;7.53;;
24096;SDS011;12275;48.550;12.132;2023-05-20T15:31:19;8.07;;;7.07;;
24096;SDS011;12275;48.550;12.132;2023-05-20T15:33:45;11.52;;;8.02;;